sensor_id;sensor_type;location;lat;lon;timestamp;P1;durP1;ratioP1;P2;durP2;ratioP2
19402;SDS011;9837;48.888;8.998;2023-12-20T00:18:13;3.00;;;2.50;;
19402;SDS011;9837;48.888;8.998;2023-12-20T00:20:39;4.80;;;3.20;;
19402;SDS011;9837;48.888;8.998;2023-12-20T00:23:05;4.57;;;2.30;;
19402;SDS011;9837;48.888;8.998;2023-12-20T00:25:32;2.77;;;2.13;;
19402;SDS011;9837;48.888;8.998;2023-12-20T00:27:58;2.83;;;2.40;;
19402;SDS011;9837;48.888;8.998;2023-12-20T00:30:24;7.33;;;4.93;;
19402;SDS011;9837;48.888;8.998;2023-12-20T00:33:04;6.73;;;3.77;;
19402;SDS011;9837;48.888;8.998;2023-12-20T00:35:45;3.00;;;2.43;;
19402;SDS011;9837;48.888;8.998;2023-12-20T00:38:14;2.40;;;2.20;;
19402;SDS011;9837;48.888;8.998;2023-12-20T00:41:08;3.20;;;2.67;;
19402;SDS011;9837;48.888;8.998;2023-12-20T00:43:37;4.97;;;2.80;;
19402;SDS011;9837;48.888;8.998;2023-12-20T00:47:00;2.73;;;2.40;;
19402;SDS011;9837;48.888;8.998;2023-12-20T00:49:32;6.07;;;2.90;;
19402;SDS011;9837;48.888;8.998;2023-12-20T00:55:30;3.83;;;2.90;;
19402;SDS011;9837;48.888;8.998;2023-12-20T00:58:53;3.80;;;2.90;;
19402;SDS011;9837;48.888;8.998;2023-12-20T01:08:47;4.53;;;3.53;;
19402;SDS011;9837;48.888;8.998;2023-12-20T01:18:04;4.37;;;3.10;;
19402;SDS011;9837;48.888;8.998;2023-12-20T01:20:30;4.80;;;3.70;;
19402;SDS011;9837;48.888;8.998;2023-12-20T01:22:56;4.47;;;2.80;;
19402;SDS011;9837;48.888;8.998;2023-12-20T01:25:22;4.23;;;3.50;;
19402;SDS011;9837;48.888;8.998;2023-12-20T01:58:21;3.07;;;2.23;;
19402;SDS011;9837;48.888;8.998;2023-12-20T02:00:48;2.60;;;2.03;;
19402;SDS011;9837;48.888;8.998;2023-12-20T02:05:51;1.13;;;1.03;;
19402;SDS011;9837;48.888;8.998;2023-12-20T02:08:18;1.03;;;0.97;;
19402;SDS011;9837;48.888;8.998;2023-12-20T02:13:20;1.43;;;0.80;;
19402;SDS011;9837;48.888;8.998;2023-12-20T02:28:48;0.73;;;0.73;;
19402;SDS011;9837;48.888;8.998;2023-12-20T02:31:14;0.50;;;0.50;;
19402;SDS011;9837;48.888;8.998;2023-12-20T02:33:40;0.70;;;0.70;;
19402;SDS011;9837;48.888;8.998;2023-12-20T02:36:07;0.87;;;0.87;;
19402;SDS011;9837;48.888;8.998;2023-12-20T02:38:33;0.77;;;0.77;;
19402;SDS011;9837;48.888;8.998;2023-12-20T02:40:59;0.60;;;0.60;;
19402;SDS011;9837;48.888;8.998;2023-12-20T02:43:25;2.70;;;0.70;;
19402;SDS011;9837;48.888;8.998;2023-12-20T02:45:51;2.40;;;0.90;;
19402;SDS011;9837;48.888;8.998;2023-12-20T02:48:17;0.80;;;0.70;;
19402;SDS011;9837;48.888;8.998;2023-12-20T02:50:43;0.90;;;0.90;;
19402;SDS011;9837;48.888;8.998;2023-12-20T02:53:09;0.77;;;0.77;;
19402;SDS011;9837;48.888;8.998;2023-12-20T02:55:35;0.93;;;0.70;;
19402;SDS011;9837;48.888;8.998;2023-12-20T02:58:01;0.70;;;0.70;;
19402;SDS011;9837;48.888;8.998;2023-12-20T03:00:27;1.00;;;0.90;;
19402;SDS011;9837;48.888;8.998;2023-12-20T04:20:53;1.33;;;0.70;;
19402;SDS011;9837;48.888;8.998;2023-12-20T04:23:18;0.90;;;0.80;;
19402;SDS011;9837;48.888;8.998;2023-12-20T04:25:45;1.50;;;0.60;;
19402;SDS011;9837;48.888;8.998;2023-12-20T04:28:11;0.53;;;0.53;;
19402;SDS011;9837;48.888;8.998;2023-12-20T04:30:37;0.77;;;0.77;;
19402;SDS011;9837;48.888;8.998;2023-12-20T04:33:03;0.70;;;0.70;;
19402;SDS011;9837;48.888;8.998;2023-12-20T04:45:53;0.87;;;0.87;;
19402;SDS011;9837;48.888;8.998;2023-12-20T04:48:19;1.30;;;0.77;;
19402;SDS011;9837;48.888;8.998;2023-12-20T04:50:45;0.83;;;0.73;;
19402;SDS011;9837;48.888;8.998;2023-12-20T04:53:13;1.33;;;0.97;;
19402;SDS011;9837;48.888;8.998;2023-12-20T04:55:39;0.90;;;0.87;;
19402;SDS011;9837;48.888;8.998;2023-12-20T04:58:05;0.90;;;0.90;;
19402;SDS011;9837;48.888;8.998;2023-12-20T05:33:07;2.53;;;2.10;;
19402;SDS011;9837;48.888;8.998;2023-12-20T05:35:33;4.03;;;1.80;;
19402;SDS011;9837;48.888;8.998;2023-12-20T06:11:48;2.23;;;2.03;;
19402;SDS011;9837;48.888;8.998;2023-12-20T06:23:12;3.17;;;2.70;;
19402;SDS011;9837;48.888;8.998;2023-12-20T06:28:36;3.60;;;3.10;;
19402;SDS011;9837;48.888;8.998;2023-12-20T06:31:01;2.87;;;2.67;;
19402;SDS011;9837;48.888;8.998;2023-12-20T06:33:28;2.87;;;2.67;;
19402;SDS011;9837;48.888;8.998;2023-12-20T06:35:55;3.20;;;2.90;;
19402;SDS011;9837;48.888;8.998;2023-12-20T06:38:22;3.30;;;3.00;;
19402;SDS011;9837;48.888;8.998;2023-12-20T06:40:48;3.40;;;3.10;;
19402;SDS011;9837;48.888;8.998;2023-12-20T06:43:14;4.43;;;3.50;;
19402;SDS011;9837;48.888;8.998;2023-12-20T06:45:40;6.37;;;3.67;;
19402;SDS011;9837;48.888;8.998;2023-12-20T06:48:06;4.40;;;4.00;;
19402;SDS011;9837;48.888;8.998;2023-12-20T06:50:32;4.80;;;4.33;;
19402;SDS011;9837;48.888;8.998;2023-12-20T06:52:58;5.30;;;4.80;;
19402;SDS011;9837;48.888;8.998;2023-12-20T06:55:24;5.60;;;4.70;;
19402;SDS011;9837;48.888;8.998;2023-12-20T07:05:38;5.67;;;4.90;;
19402;SDS011;9837;48.888;8.998;2023-12-20T07:08:04;6.30;;;4.87;;
19402;SDS011;9837;48.888;8.998;2023-12-20T07:10:30;4.97;;;4.37;;
19402;SDS011;9837;48.888;8.998;2023-12-20T07:12:56;4.03;;;3.63;;
19402;SDS011;9837;48.888;8.998;2023-12-20T07:15:22;3.80;;;3.47;;
19402;SDS011;9837;48.888;8.998;2023-12-20T07:17:48;3.90;;;3.60;;
19402;SDS011;9837;48.888;8.998;2023-12-20T07:20:14;4.30;;;3.90;;
19402;SDS011;9837;48.888;8.998;2023-12-20T07:22:40;4.87;;;3.43;;
19402;SDS011;9837;48.888;8.998;2023-12-20T07:25:07;4.10;;;3.70;;
19402;SDS011;9837;48.888;8.998;2023-12-20T07:27:33;4.07;;;3.67;;
19402;SDS011;9837;48.888;8.998;2023-12-20T07:29:59;3.77;;;3.43;;
19402;SDS011;9837;48.888;8.998;2023-12-20T07:32:25;5.57;;;4.03;;
19402;SDS011;9837;48.888;8.998;2023-12-20T07:34:51;4.40;;;4.00;;
19402;SDS011;9837;48.888;8.998;2023-12-20T07:37:17;4.37;;;3.97;;
19402;SDS011;9837;48.888;8.998;2023-12-20T07:39:43;5.00;;;4.40;;
19402;SDS011;9837;48.888;8.998;2023-12-20T07:42:09;4.03;;;3.63;;
19402;SDS011;9837;48.888;8.998;2023-12-20T08:32:26;6.37;;;4.33;;
19402;SDS011;9837;48.888;8.998;2023-12-20T08:34:52;8.37;;;4.17;;
19402;SDS011;9837;48.888;8.998;2023-12-20T08:37:18;4.83;;;3.90;;
19402;SDS011;9837;48.888;8.998;2023-12-20T08:51:01;7.37;;;3.67;;
19402;SDS011;9837;48.888;8.998;2023-12-20T09:00:35;5.47;;;3.50;;
19402;SDS011;9837;48.888;8.998;2023-12-20T09:03:01;5.93;;;3.40;;
19402;SDS011;9837;48.888;8.998;2023-12-20T09:05:27;5.30;;;3.07;;
19402;SDS011;9837;48.888;8.998;2023-12-20T09:07:53;5.83;;;3.40;;
19402;SDS011;9837;48.888;8.998;2023-12-20T09:10:21;4.60;;;2.93;;
19402;SDS011;9837;48.888;8.998;2023-12-20T09:27:10;6.70;;;1.97;;
19402;SDS011;9837;48.888;8.998;2023-12-20T09:29:36;5.90;;;2.20;;
19402;SDS011;9837;48.888;8.998;2023-12-20T09:32:02;4.70;;;1.90;;
19402;SDS011;9837;48.888;8.998;2023-12-20T09:45:08;9.30;;;2.17;;
19402;SDS011;9837;48.888;8.998;2023-12-20T09:54:59;5.80;;;2.03;;
19402;SDS011;9837;48.888;8.998;2023-12-20T10:08:31;6.17;;;2.20;;
19402;SDS011;9837;48.888;8.998;2023-12-20T10:10:57;7.97;;;2.37;;
19402;SDS011;9837;48.888;8.998;2023-12-20T10:13:27;4.70;;;1.90;;
19402;SDS011;9837;48.888;8.998;2023-12-20T10:21:05;5.70;;;2.50;;
19402;SDS011;9837;48.888;8.998;2023-12-20T10:27:01;5.07;;;1.97;;
19402;SDS011;9837;48.888;8.998;2023-12-20T10:29:53;9.03;;;2.60;;
19402;SDS011;9837;48.888;8.998;2023-12-20T10:43:14;13.10;;;1.80;;
19402;SDS011;9837;48.888;8.998;2023-12-20T10:52:38;7.07;;;1.70;;
19402;SDS011;9837;48.888;8.998;2023-12-20T10:59:03;7.03;;;1.67;;
19402;SDS011;9837;48.888;8.998;2023-12-20T11:02:14;10.17;;;2.23;;
19402;SDS011;9837;48.888;8.998;2023-12-20T11:14:54;6.33;;;1.80;;
19402;SDS011;9837;48.888;8.998;2023-12-20T11:17:40;8.70;;;2.50;;
19402;SDS011;9837;48.888;8.998;2023-12-20T11:20:10;4.33;;;2.17;;
19402;SDS011;9837;48.888;8.998;2023-12-20T11:22:51;6.73;;;2.27;;
19402;SDS011;9837;48.888;8.998;2023-12-20T11:25:18;5.17;;;1.93;;
19402;SDS011;9837;48.888;8.998;2023-12-20T11:30:42;6.37;;;2.63;;
19402;SDS011;9837;48.888;8.998;2023-12-20T11:33:12;5.67;;;1.90;;
19402;SDS011;9837;48.888;8.998;2023-12-20T11:35:52;6.07;;;2.33;;
19402;SDS011;9837;48.888;8.998;2023-12-20T11:38:21;9.03;;;2.40;;
19402;SDS011;9837;48.888;8.998;2023-12-20T11:40:48;4.97;;;2.10;;
19402;SDS011;9837;48.888;8.998;2023-12-20T11:46:06;8.13;;;2.33;;
19402;SDS011;9837;48.888;8.998;2023-12-20T11:48:34;6.97;;;2.50;;
19402;SDS011;9837;48.888;8.998;2023-12-20T11:51:09;11.67;;;2.33;;
19402;SDS011;9837;48.888;8.998;2023-12-20T11:53:36;5.53;;;2.27;;
19402;SDS011;9837;48.888;8.998;2023-12-20T11:56:20;5.13;;;1.90;;
19402;SDS011;9837;48.888;8.998;2023-12-20T11:58:55;4.53;;;2.07;;
19402;SDS011;9837;48.888;8.998;2023-12-20T12:01:21;9.80;;;2.17;;
19402;SDS011;9837;48.888;8.998;2023-12-20T12:03:47;8.67;;;2.70;;
19402;SDS011;9837;48.888;8.998;2023-12-20T12:06:13;7.07;;;2.30;;
19402;SDS011;9837;48.888;8.998;2023-12-20T12:08:39;4.13;;;1.93;;
19402;SDS011;9837;48.888;8.998;2023-12-20T12:11:05;7.67;;;2.20;;
19402;SDS011;9837;48.888;8.998;2023-12-20T12:13:31;6.70;;;2.10;;
19402;SDS011;9837;48.888;8.998;2023-12-20T12:15:58;2.23;;;1.73;;
19402;SDS011;9837;48.888;8.998;2023-12-20T12:18:24;8.13;;;2.00;;
19402;SDS011;9837;48.888;8.998;2023-12-20T12:20:50;7.63;;;2.00;;
19402;SDS011;9837;48.888;8.998;2023-12-20T12:23:24;7.20;;;1.77;;
19402;SDS011;9837;48.888;8.998;2023-12-20T12:25:49;4.10;;;1.70;;
19402;SDS011;9837;48.888;8.998;2023-12-20T12:28:15;7.20;;;1.90;;
19402;SDS011;9837;48.888;8.998;2023-12-20T12:30:41;7.20;;;1.93;;
19402;SDS011;9837;48.888;8.998;2023-12-20T12:33:07;5.20;;;2.00;;
19402;SDS011;9837;48.888;8.998;2023-12-20T12:35:33;3.53;;;1.40;;
19402;SDS011;9837;48.888;8.998;2023-12-20T12:37:59;5.30;;;1.97;;
19402;SDS011;9837;48.888;8.998;2023-12-20T12:40:26;6.00;;;1.90;;
19402;SDS011;9837;48.888;8.998;2023-12-20T12:42:51;5.80;;;2.30;;
19402;SDS011;9837;48.888;8.998;2023-12-20T12:45:17;7.70;;;2.00;;
19402;SDS011;9837;48.888;8.998;2023-12-20T12:47:43;4.33;;;1.83;;
19402;SDS011;9837;48.888;8.998;2023-12-20T12:50:10;8.30;;;2.23;;
19402;SDS011;9837;48.888;8.998;2023-12-20T12:52:35;5.93;;;2.60;;
19402;SDS011;9837;48.888;8.998;2023-12-20T12:55:01;8.77;;;1.80;;
19402;SDS011;9837;48.888;8.998;2023-12-20T12:57:26;3.13;;;1.70;;
19402;SDS011;9837;48.888;8.998;2023-12-20T12:59:52;6.00;;;1.87;;
19402;SDS011;9837;48.888;8.998;2023-12-20T13:02:17;3.80;;;1.70;;
19402;SDS011;9837;48.888;8.998;2023-12-20T13:04:43;8.90;;;2.03;;
19402;SDS011;9837;48.888;8.998;2023-12-20T13:07:09;5.87;;;2.00;;
19402;SDS011;9837;48.888;8.998;2023-12-20T13:09:38;4.63;;;2.20;;
19402;SDS011;9837;48.888;8.998;2023-12-20T13:12:05;7.20;;;1.80;;
19402;SDS011;9837;48.888;8.998;2023-12-20T13:14:34;3.70;;;1.70;;
19402;SDS011;9837;48.888;8.998;2023-12-20T13:17:02;6.10;;;1.93;;
19402;SDS011;9837;48.888;8.998;2023-12-20T13:19:28;6.47;;;2.33;;
19402;SDS011;9837;48.888;8.998;2023-12-20T13:21:55;2.93;;;1.50;;
19402;SDS011;9837;48.888;8.998;2023-12-20T13:24:20;8.67;;;2.00;;
19402;SDS011;9837;48.888;8.998;2023-12-20T13:26:46;3.67;;;1.60;;
19402;SDS011;9837;48.888;8.998;2023-12-20T13:29:12;3.70;;;1.90;;
19402;SDS011;9837;48.888;8.998;2023-12-20T13:31:37;6.47;;;2.10;;
19402;SDS011;9837;48.888;8.998;2023-12-20T13:34:03;3.47;;;1.87;;
19402;SDS011;9837;48.888;8.998;2023-12-20T13:36:29;6.87;;;1.80;;
19402;SDS011;9837;48.888;8.998;2023-12-20T13:38:54;7.00;;;1.70;;
19402;SDS011;9837;48.888;8.998;2023-12-20T13:41:20;8.37;;;2.13;;
19402;SDS011;9837;48.888;8.998;2023-12-20T13:43:45;3.30;;;1.90;;
19402;SDS011;9837;48.888;8.998;2023-12-20T13:46:11;4.63;;;1.80;;
19402;SDS011;9837;48.888;8.998;2023-12-20T13:48:36;4.43;;;1.63;;
19402;SDS011;9837;48.888;8.998;2023-12-20T13:51:02;5.20;;;1.80;;
19402;SDS011;9837;48.888;8.998;2023-12-20T13:53:28;7.83;;;1.73;;
19402;SDS011;9837;48.888;8.998;2023-12-20T13:55:54;7.60;;;1.90;;
19402;SDS011;9837;48.888;8.998;2023-12-20T13:58:19;5.90;;;1.60;;
19402;SDS011;9837;48.888;8.998;2023-12-20T14:00:45;9.80;;;2.13;;
19402;SDS011;9837;48.888;8.998;2023-12-20T14:03:10;5.03;;;1.83;;
19402;SDS011;9837;48.888;8.998;2023-12-20T14:05:36;7.13;;;2.10;;
19402;SDS011;9837;48.888;8.998;2023-12-20T14:08:02;6.43;;;2.37;;
19402;SDS011;9837;48.888;8.998;2023-12-20T14:10:28;6.43;;;2.17;;
19402;SDS011;9837;48.888;8.998;2023-12-20T14:12:54;4.23;;;2.03;;
19402;SDS011;9837;48.888;8.998;2023-12-20T14:15:19;6.60;;;2.60;;
19402;SDS011;9837;48.888;8.998;2023-12-20T14:17:45;4.27;;;2.77;;
19402;SDS011;9837;48.888;8.998;2023-12-20T14:20:11;5.27;;;2.10;;
19402;SDS011;9837;48.888;8.998;2023-12-20T14:22:39;6.80;;;2.30;;
19402;SDS011;9837;48.888;8.998;2023-12-20T14:25:10;8.17;;;2.47;;
19402;SDS011;9837;48.888;8.998;2023-12-20T14:27:37;8.73;;;2.63;;
19402;SDS011;9837;48.888;8.998;2023-12-20T14:30:03;7.53;;;2.17;;
19402;SDS011;9837;48.888;8.998;2023-12-20T14:32:29;6.83;;;2.70;;
19402;SDS011;9837;48.888;8.998;2023-12-20T14:34:54;3.70;;;1.87;;
19402;SDS011;9837;48.888;8.998;2023-12-20T14:37:20;5.43;;;2.40;;
19402;SDS011;9837;48.888;8.998;2023-12-20T14:39:45;11.17;;;2.47;;
19402;SDS011;9837;48.888;8.998;2023-12-20T14:42:11;5.10;;;1.90;;
19402;SDS011;9837;48.888;8.998;2023-12-20T14:44:39;8.70;;;1.87;;
19402;SDS011;9837;48.888;8.998;2023-12-20T14:47:05;5.10;;;2.03;;
19402;SDS011;9837;48.888;8.998;2023-12-20T14:49:31;8.40;;;2.37;;
19402;SDS011;9837;48.888;8.998;2023-12-20T14:51:57;8.73;;;2.50;;
19402;SDS011;9837;48.888;8.998;2023-12-20T14:54:23;7.03;;;2.20;;
19402;SDS011;9837;48.888;8.998;2023-12-20T14:56:48;4.43;;;2.00;;
19402;SDS011;9837;48.888;8.998;2023-12-20T14:59:14;4.17;;;1.60;;
19402;SDS011;9837;48.888;8.998;2023-12-20T15:01:39;7.13;;;2.50;;
19402;SDS011;9837;48.888;8.998;2023-12-20T15:04:09;5.70;;;2.57;;
19402;SDS011;9837;48.888;8.998;2023-12-20T15:06:34;8.30;;;2.40;;
19402;SDS011;9837;48.888;8.998;2023-12-20T15:09:00;9.60;;;2.27;;
19402;SDS011;9837;48.888;8.998;2023-12-20T15:11:25;8.60;;;2.23;;
19402;SDS011;9837;48.888;8.998;2023-12-20T15:13:51;10.67;;;2.27;;
19402;SDS011;9837;48.888;8.998;2023-12-20T15:16:21;8.70;;;2.07;;
19402;SDS011;9837;48.888;8.998;2023-12-20T15:18:47;8.67;;;2.00;;
19402;SDS011;9837;48.888;8.998;2023-12-20T15:21:14;7.43;;;1.90;;
19402;SDS011;9837;48.888;8.998;2023-12-20T15:23:40;4.93;;;2.03;;
19402;SDS011;9837;48.888;8.998;2023-12-20T15:26:17;5.97;;;2.37;;
19402;SDS011;9837;48.888;8.998;2023-12-20T15:28:43;7.70;;;2.53;;
19402;SDS011;9837;48.888;8.998;2023-12-20T15:31:08;6.10;;;1.73;;
19402;SDS011;9837;48.888;8.998;2023-12-20T15:33:34;3.27;;;1.50;;
19402;SDS011;9837;48.888;8.998;2023-12-20T15:35:59;4.60;;;2.00;;
19402;SDS011;9837;48.888;8.998;2023-12-20T15:38:26;4.33;;;2.10;;
19402;SDS011;9837;48.888;8.998;2023-12-20T15:40:52;7.90;;;2.07;;
19402;SDS011;9837;48.888;8.998;2023-12-20T15:43:18;5.10;;;1.80;;
19402;SDS011;9837;48.888;8.998;2023-12-20T15:56:20;6.03;;;2.07;;
19402;SDS011;9837;48.888;8.998;2023-12-20T15:59:29;3.67;;;1.67;;
19402;SDS011;9837;48.888;8.998;2023-12-20T16:01:55;6.53;;;1.93;;
19402;SDS011;9837;48.888;8.998;2023-12-20T16:04:56;6.27;;;2.03;;
19402;SDS011;9837;48.888;8.998;2023-12-20T16:07:28;4.90;;;1.70;;
19402;SDS011;9837;48.888;8.998;2023-12-20T16:10:01;9.20;;;2.00;;
19402;SDS011;9837;48.888;8.998;2023-12-20T16:15:37;3.40;;;1.47;;
19402;SDS011;9837;48.888;8.998;2023-12-20T16:18:22;7.33;;;1.70;;
19402;SDS011;9837;48.888;8.998;2023-12-20T16:20:48;5.97;;;1.83;;
19402;SDS011;9837;48.888;8.998;2023-12-20T16:23:16;6.80;;;1.90;;
19402;SDS011;9837;48.888;8.998;2023-12-20T16:25:43;5.37;;;2.00;;
19402;SDS011;9837;48.888;8.998;2023-12-20T16:28:11;4.17;;;1.83;;
19402;SDS011;9837;48.888;8.998;2023-12-20T16:31:07;2.47;;;1.60;;
19402;SDS011;9837;48.888;8.998;2023-12-20T16:40:29;3.63;;;1.40;;
19402;SDS011;9837;48.888;8.998;2023-12-20T16:42:56;4.77;;;1.30;;
19402;SDS011;9837;48.888;8.998;2023-12-20T16:45:23;3.30;;;1.30;;
19402;SDS011;9837;48.888;8.998;2023-12-20T16:47:49;3.53;;;1.27;;
19402;SDS011;9837;48.888;8.998;2023-12-20T16:50:15;4.87;;;1.20;;
19402;SDS011;9837;48.888;8.998;2023-12-20T16:52:41;2.57;;;1.17;;
19402;SDS011;9837;48.888;8.998;2023-12-20T16:55:10;5.13;;;1.10;;
19402;SDS011;9837;48.888;8.998;2023-12-20T16:57:36;3.87;;;1.20;;
19402;SDS011;9837;48.888;8.998;2023-12-20T17:00:02;2.00;;;1.13;;
19402;SDS011;9837;48.888;8.998;2023-12-20T17:02:29;1.83;;;1.00;;
19402;SDS011;9837;48.888;8.998;2023-12-20T17:04:55;2.73;;;1.00;;
19402;SDS011;9837;48.888;8.998;2023-12-20T17:07:21;2.70;;;1.53;;
19402;SDS011;9837;48.888;8.998;2023-12-20T17:09:46;1.83;;;1.30;;
19402;SDS011;9837;48.888;8.998;2023-12-20T17:12:15;3.23;;;1.40;;
19402;SDS011;9837;48.888;8.998;2023-12-20T17:14:41;3.30;;;1.20;;
19402;SDS011;9837;48.888;8.998;2023-12-20T17:17:07;5.33;;;1.67;;
19402;SDS011;9837;48.888;8.998;2023-12-20T17:19:33;1.87;;;1.00;;
19402;SDS011;9837;48.888;8.998;2023-12-20T17:21:59;2.70;;;1.40;;
19402;SDS011;9837;48.888;8.998;2023-12-20T17:24:25;2.03;;;1.37;;
19402;SDS011;9837;48.888;8.998;2023-12-20T17:26:51;3.47;;;1.40;;
19402;SDS011;9837;48.888;8.998;2023-12-20T17:29:21;2.20;;;1.20;;
19402;SDS011;9837;48.888;8.998;2023-12-20T17:31:46;3.17;;;1.43;;
19402;SDS011;9837;48.888;8.998;2023-12-20T17:34:12;4.73;;;1.50;;
19402;SDS011;9837;48.888;8.998;2023-12-20T17:36:41;2.07;;;1.27;;
19402;SDS011;9837;48.888;8.998;2023-12-20T17:39:08;2.03;;;1.30;;
19402;SDS011;9837;48.888;8.998;2023-12-20T17:41:34;4.37;;;1.80;;
19402;SDS011;9837;48.888;8.998;2023-12-20T17:44:03;6.23;;;1.60;;
19402;SDS011;9837;48.888;8.998;2023-12-20T17:46:29;3.60;;;1.77;;
19402;SDS011;9837;48.888;8.998;2023-12-20T17:48:55;4.33;;;2.10;;
19402;SDS011;9837;48.888;8.998;2023-12-20T17:51:21;3.70;;;1.73;;
19402;SDS011;9837;48.888;8.998;2023-12-20T17:53:47;3.47;;;1.33;;
19402;SDS011;9837;48.888;8.998;2023-12-20T17:56:14;2.43;;;1.27;;
19402;SDS011;9837;48.888;8.998;2023-12-20T17:58:40;4.17;;;1.60;;
19402;SDS011;9837;48.888;8.998;2023-12-20T18:01:06;4.50;;;1.70;;
19402;SDS011;9837;48.888;8.998;2023-12-20T18:03:32;3.33;;;1.70;;
19402;SDS011;9837;48.888;8.998;2023-12-20T18:05:58;5.30;;;1.73;;
19402;SDS011;9837;48.888;8.998;2023-12-20T18:08:24;2.43;;;1.30;;
19402;SDS011;9837;48.888;8.998;2023-12-20T18:10:50;4.13;;;1.70;;
19402;SDS011;9837;48.888;8.998;2023-12-20T18:13:16;2.30;;;1.40;;
19402;SDS011;9837;48.888;8.998;2023-12-20T18:15:42;6.53;;;1.73;;
19402;SDS011;9837;48.888;8.998;2023-12-20T18:18:08;1.63;;;1.20;;
19402;SDS011;9837;48.888;8.998;2023-12-20T18:20:36;7.77;;;1.87;;
19402;SDS011;9837;48.888;8.998;2023-12-20T18:23:02;2.80;;;1.23;;
19402;SDS011;9837;48.888;8.998;2023-12-20T18:25:28;3.37;;;1.77;;
19402;SDS011;9837;48.888;8.998;2023-12-20T18:27:55;4.10;;;1.63;;
19402;SDS011;9837;48.888;8.998;2023-12-20T18:30:21;3.03;;;1.43;;
19402;SDS011;9837;48.888;8.998;2023-12-20T18:32:47;3.37;;;1.70;;
19402;SDS011;9837;48.888;8.998;2023-12-20T18:35:13;4.03;;;1.90;;
19402;SDS011;9837;48.888;8.998;2023-12-20T18:37:39;2.97;;;1.57;;
19402;SDS011;9837;48.888;8.998;2023-12-20T18:40:05;6.30;;;1.80;;
19402;SDS011;9837;48.888;8.998;2023-12-20T18:42:32;1.93;;;1.27;;
19402;SDS011;9837;48.888;8.998;2023-12-20T18:44:58;3.03;;;1.37;;
19402;SDS011;9837;48.888;8.998;2023-12-20T18:47:25;4.23;;;1.40;;
19402;SDS011;9837;48.888;8.998;2023-12-20T18:49:51;3.70;;;1.60;;
19402;SDS011;9837;48.888;8.998;2023-12-20T18:52:17;3.13;;;1.60;;
19402;SDS011;9837;48.888;8.998;2023-12-20T18:54:43;1.20;;;1.07;;
19402;SDS011;9837;48.888;8.998;2023-12-20T18:57:09;3.80;;;1.23;;
19402;SDS011;9837;48.888;8.998;2023-12-20T18:59:35;3.97;;;1.47;;
19402;SDS011;9837;48.888;8.998;2023-12-20T19:02:02;3.03;;;1.43;;
19402;SDS011;9837;48.888;8.998;2023-12-20T19:04:28;3.90;;;1.20;;
19402;SDS011;9837;48.888;8.998;2023-12-20T19:06:53;1.93;;;1.20;;
19402;SDS011;9837;48.888;8.998;2023-12-20T19:09:24;2.97;;;1.27;;
19402;SDS011;9837;48.888;8.998;2023-12-20T19:11:50;2.63;;;1.20;;
19402;SDS011;9837;48.888;8.998;2023-12-20T19:14:16;3.57;;;1.10;;
19402;SDS011;9837;48.888;8.998;2023-12-20T19:16:42;2.17;;;1.20;;
19402;SDS011;9837;48.888;8.998;2023-12-20T19:19:08;3.57;;;1.63;;
19402;SDS011;9837;48.888;8.998;2023-12-20T19:21:34;1.93;;;1.10;;
19402;SDS011;9837;48.888;8.998;2023-12-20T19:24:00;3.70;;;1.27;;
19402;SDS011;9837;48.888;8.998;2023-12-20T19:26:26;2.60;;;1.20;;
19402;SDS011;9837;48.888;8.998;2023-12-20T19:28:52;1.50;;;1.40;;
19402;SDS011;9837;48.888;8.998;2023-12-20T19:31:18;5.60;;;1.50;;
19402;SDS011;9837;48.888;8.998;2023-12-20T19:33:44;3.40;;;1.70;;
19402;SDS011;9837;48.888;8.998;2023-12-20T19:36:15;2.53;;;1.40;;
19402;SDS011;9837;48.888;8.998;2023-12-20T19:38:41;3.23;;;1.27;;
19402;SDS011;9837;48.888;8.998;2023-12-20T19:41:07;2.00;;;1.13;;
19402;SDS011;9837;48.888;8.998;2023-12-20T19:43:34;2.33;;;1.37;;
19402;SDS011;9837;48.888;8.998;2023-12-20T19:46:00;2.43;;;0.97;;
19402;SDS011;9837;48.888;8.998;2023-12-20T19:48:26;3.17;;;1.40;;
19402;SDS011;9837;48.888;8.998;2023-12-20T19:50:52;3.37;;;1.30;;
19402;SDS011;9837;48.888;8.998;2023-12-20T19:53:18;2.73;;;1.20;;
19402;SDS011;9837;48.888;8.998;2023-12-20T19:55:44;4.07;;;1.27;;
19402;SDS011;9837;48.888;8.998;2023-12-20T19:58:10;1.97;;;1.23;;
19402;SDS011;9837;48.888;8.998;2023-12-20T20:00:36;2.67;;;1.40;;
19402;SDS011;9837;48.888;8.998;2023-12-20T20:03:03;3.07;;;1.40;;
19402;SDS011;9837;48.888;8.998;2023-12-20T20:05:29;5.77;;;1.67;;
19402;SDS011;9837;48.888;8.998;2023-12-20T20:07:55;2.77;;;1.50;;
19402;SDS011;9837;48.888;8.998;2023-12-20T20:10:21;4.20;;;1.50;;
19402;SDS011;9837;48.888;8.998;2023-12-20T20:12:47;4.43;;;1.60;;
19402;SDS011;9837;48.888;8.998;2023-12-20T20:15:13;2.73;;;1.57;;
19402;SDS011;9837;48.888;8.998;2023-12-20T20:17:39;2.23;;;1.40;;
19402;SDS011;9837;48.888;8.998;2023-12-20T20:20:05;2.33;;;1.40;;
19402;SDS011;9837;48.888;8.998;2023-12-20T20:22:31;5.07;;;1.57;;
19402;SDS011;9837;48.888;8.998;2023-12-20T20:24:59;2.43;;;1.00;;
19402;SDS011;9837;48.888;8.998;2023-12-20T20:27:25;2.07;;;1.30;;
19402;SDS011;9837;48.888;8.998;2023-12-20T20:29:51;3.33;;;1.27;;
19402;SDS011;9837;48.888;8.998;2023-12-20T20:32:17;3.63;;;1.40;;
19402;SDS011;9837;48.888;8.998;2023-12-20T20:34:43;1.30;;;1.00;;
19402;SDS011;9837;48.888;8.998;2023-12-20T20:37:09;2.40;;;1.13;;
19402;SDS011;9837;48.888;8.998;2023-12-20T20:39:35;4.00;;;1.40;;
19402;SDS011;9837;48.888;8.998;2023-12-20T20:42:05;2.83;;;1.10;;
19402;SDS011;9837;48.888;8.998;2023-12-20T20:44:36;2.90;;;1.17;;
19402;SDS011;9837;48.888;8.998;2023-12-20T20:47:02;2.40;;;1.43;;
19402;SDS011;9837;48.888;8.998;2023-12-20T20:49:29;2.13;;;1.00;;
19402;SDS011;9837;48.888;8.998;2023-12-20T20:51:55;2.40;;;1.10;;
19402;SDS011;9837;48.888;8.998;2023-12-20T20:54:21;1.97;;;1.30;;
19402;SDS011;9837;48.888;8.998;2023-12-20T20:56:47;1.63;;;1.30;;
19402;SDS011;9837;48.888;8.998;2023-12-20T20:59:13;3.20;;;1.30;;
19402;SDS011;9837;48.888;8.998;2023-12-20T21:01:39;2.73;;;1.30;;
19402;SDS011;9837;48.888;8.998;2023-12-20T21:04:07;2.73;;;1.23;;
19402;SDS011;9837;48.888;8.998;2023-12-20T21:06:33;2.30;;;1.47;;
19402;SDS011;9837;48.888;8.998;2023-12-20T21:08:59;2.70;;;1.17;;
19402;SDS011;9837;48.888;8.998;2023-12-20T21:11:25;3.20;;;1.40;;
19402;SDS011;9837;48.888;8.998;2023-12-20T21:13:51;3.07;;;1.30;;
19402;SDS011;9837;48.888;8.998;2023-12-20T21:16:18;1.30;;;1.03;;
19402;SDS011;9837;48.888;8.998;2023-12-20T21:18:44;2.57;;;1.10;;
19402;SDS011;9837;48.888;8.998;2023-12-20T21:21:10;6.97;;;1.20;;
19402;SDS011;9837;48.888;8.998;2023-12-20T21:23:39;2.53;;;1.10;;
19402;SDS011;9837;48.888;8.998;2023-12-20T21:26:05;1.70;;;1.00;;
19402;SDS011;9837;48.888;8.998;2023-12-20T21:28:32;1.27;;;1.10;;
19402;SDS011;9837;48.888;8.998;2023-12-20T21:30:58;1.80;;;0.97;;
19402;SDS011;9837;48.888;8.998;2023-12-20T21:33:24;2.03;;;1.07;;
19402;SDS011;9837;48.888;8.998;2023-12-20T21:35:50;2.00;;;1.00;;
19402;SDS011;9837;48.888;8.998;2023-12-20T21:38:16;4.20;;;1.10;;
19402;SDS011;9837;48.888;8.998;2023-12-20T21:40:42;2.00;;;0.93;;
19402;SDS011;9837;48.888;8.998;2023-12-20T21:43:08;1.73;;;1.00;;
19402;SDS011;9837;48.888;8.998;2023-12-20T21:45:34;1.63;;;0.93;;
19402;SDS011;9837;48.888;8.998;2023-12-20T21:48:02;3.03;;;1.50;;
19402;SDS011;9837;48.888;8.998;2023-12-20T21:50:28;2.07;;;1.13;;
19402;SDS011;9837;48.888;8.998;2023-12-20T21:52:54;1.97;;;0.90;;
19402;SDS011;9837;48.888;8.998;2023-12-20T21:55:20;2.00;;;0.80;;
19402;SDS011;9837;48.888;8.998;2023-12-20T21:57:47;2.50;;;0.87;;
19402;SDS011;9837;48.888;8.998;2023-12-20T22:00:13;0.83;;;0.83;;
19402;SDS011;9837;48.888;8.998;2023-12-20T22:02:39;1.90;;;1.40;;
19402;SDS011;9837;48.888;8.998;2023-12-20T22:05:05;1.90;;;1.20;;
19402;SDS011;9837;48.888;8.998;2023-12-20T22:07:31;1.33;;;0.80;;
19402;SDS011;9837;48.888;8.998;2023-12-20T22:09:57;1.20;;;0.97;;
19402;SDS011;9837;48.888;8.998;2023-12-20T22:12:23;2.13;;;1.93;;
19402;SDS011;9837;48.888;8.998;2023-12-20T22:14:49;2.47;;;1.13;;
19402;SDS011;9837;48.888;8.998;2023-12-20T22:17:16;0.83;;;0.83;;